Central Square, NY

2:39 PM EST on December 25, 2014 (GMT -0500)
Oneida River | Change Station
CLOSE
Current Station
Personal Weather Station
Location: Pennellville, NY
Elevation: 377 ft
Nearby Weather Stations

Elev 377 ft 43.24 °N, 76.25 °W | Updated 6 minutes ago

Overcast
Overcast
43.9 °F
Feels Like 41 °F
N
5.4
Wind Variable Wind from West
Gusts 9.2 mph

Today
High -- | Low -- °F
--% Chance of Precip.
Yesterday
High -- | Low -- °F
Precip. -- in
7:35 AM 4:34 PM
Waxing Crescent, 18% visible
Pressure 29.79 in
Visibility 10.0 miles
Clouds Mostly Cloudy 3500 ft
Overcast 6000 ft
Windchill 41 °F
Dew Point 33 °F
Humidity 66%
Rainfall 0.05 in
Snow Depth Not available.
UV 0 out of 12
Pollen .10 out of 12
Air Quality Not available.
Flu Activity Not available.
METAR KSYR 251854Z 26016KT 10SM BKN035 OVC060 07/01 A2979 RMK AO2 PK WND 26026/1836 SLP086 BKN V OVC T00670011 $

More Conditions Fewer Conditions

Pressure 29.79 in
Visibility 10.0 miles
Clouds Mostly Cloudy 3500 ft
Overcast 6000 ft
Windchill 41 °F
Dew Point 33 °F
Humidity 66%
Rainfall 0.05 in
Snow Depth Not available.
UV 0 out of 12
Pollen .10 out of 12
Air Quality Not available.
Flu Activity Not available.
METAR KSYR 251854Z 26016KT 10SM BKN035 OVC060 07/01 A2979 RMK AO2 PK WND 26026/1836 SLP086 BKN V OVC T00670011 $

More Conditions Fewer Conditions

10-Day Weather Forecast

Almanac

Astronomy

Dec. 25, 2014 Rise Set
Actual Time
Civil Twilight
Nautical Twilight
Astronomical Twilight
Moon
Length of Visible Light
Length of Day
Tomorrow will be .
, % of the Moon is Illuminated

Today's Extremes

State Highs State Lows

Community

WunderPhotos

Upload Photos

1,780,374 photos uploaded!

WunderBlogs® & News

Nearby

Air Quality

  Air Quality AQ Index Pollutant
Not available.

Snow Depth

Station Depth Elevation

Earthquake Activity

City Distance Mag. Time & Date
Minimum magnitude displayed is 2.5.

Coastal Water Temperatures

Place Temperature

Nearby Weather Stations